sensor_id;sensor_type;location;lat;lon;timestamp;pressure;altitude;pressure_sealevel;temperature;humidity
78671;BME280;68277;52.724;6.516;2023-04-03T00:02:19;103235.03;;;2.39;68.65
78671;BME280;68277;52.724;6.516;2023-04-03T00:04:45;103182.84;;;2.05;69.50
78671;BME280;68277;52.724;6.516;2023-04-03T00:07:11;103214.78;;;2.17;69.02
78671;BME280;68277;52.724;6.516;2023-04-03T00:09:37;103222.09;;;2.24;69.97
78671;BME280;68277;52.724;6.516;2023-04-03T00:12:03;103182.31;;;1.94;69.94
78671;BME280;68277;52.724;6.516;2023-04-03T00:14:28;103193.06;;;2.00;69.49
78671;BME280;68277;52.724;6.516;2023-04-03T00:16:54;103205.25;;;2.00;69.15
78671;BME280;68277;52.724;6.516;2023-04-03T00:19:19;103244.50;;;2.19;69.35
78671;BME280;68277;52.724;6.516;2023-04-03T00:21:45;103248.75;;;2.17;69.47
78671;BME280;68277;52.724;6.516;2023-04-03T00:24:10;103193.13;;;1.84;69.55
78671;BME280;68277;52.724;6.516;2023-04-03T00:26:36;103245.00;;;2.12;69.76
78671;BME280;68277;52.724;6.516;2023-04-03T00:29:01;103225.75;;;1.92;69.47
78671;BME280;68277;52.724;6.516;2023-04-03T00:31:27;103215.97;;;1.88;69.73
78671;BME280;68277;52.724;6.516;2023-04-03T00:33:52;103257.03;;;2.08;70.16
78671;BME280;68277;52.724;6.516;2023-04-03T00:36:18;103251.81;;;2.08;70.34
78671;BME280;68277;52.724;6.516;2023-04-03T00:38:43;103206.03;;;1.81;70.40
78671;BME280;68277;52.724;6.516;2023-04-03T00:41:09;103239.59;;;1.91;71.08
78671;BME280;68277;52.724;6.516;2023-04-03T00:43:35;103244.09;;;1.94;70.52
78671;BME280;68277;52.724;6.516;2023-04-03T00:46:01;103205.41;;;1.69;70.29
78671;BME280;68277;52.724;6.516;2023-04-03T00:51:06;103227.78;;;1.82;70.31
78671;BME280;68277;52.724;6.516;2023-04-03T00:53:39;103200.75;;;1.64;71.30
78671;BME280;68277;52.724;6.516;2023-04-03T00:56:10;103237.09;;;1.77;71.61
78671;BME280;68277;52.724;6.516;2023-04-03T00:58:42;103230.69;;;1.70;71.76
78671;BME280;68277;52.724;6.516;2023-04-03T01:01:12;103215.50;;;1.63;71.17
78671;BME280;68277;52.724;6.516;2023-04-03T01:03:40;103204.53;;;1.53;70.88
78671;BME280;68277;52.724;6.516;2023-04-03T01:06:07;103244.63;;;1.71;71.27
78671;BME280;68277;52.724;6.516;2023-04-03T01:08:34;103262.63;;;1.82;71.48
78671;BME280;68277;52.724;6.516;2023-04-03T01:11:00;103233.56;;;1.59;70.93
78671;BME280;68277;52.724;6.516;2023-04-03T01:13:30;103272.59;;;1.73;71.52
78671;BME280;68277;52.724;6.516;2023-04-03T01:15:56;103236.00;;;1.56;71.25
78671;BME280;68277;52.724;6.516;2023-04-03T01:18:23;103249.78;;;1.53;71.37
78671;BME280;68277;52.724;6.516;2023-04-03T01:23:27;103279.38;;;1.70;72.44
78671;BME280;68277;52.724;6.516;2023-04-03T01:25:57;103247.03;;;1.50;71.67
78671;BME280;68277;52.724;6.516;2023-04-03T01:31:20;103223.38;;;1.31;72.08
78671;BME280;68277;52.724;6.516;2023-04-03T01:33:48;103267.78;;;1.49;72.06
78671;BME280;68277;52.724;6.516;2023-04-03T01:36:18;103273.34;;;1.55;72.52
78671;BME280;68277;52.724;6.516;2023-04-03T01:38:48;103286.56;;;1.58;72.51
78671;BME280;68277;52.724;6.516;2023-04-03T01:41:14;103288.19;;;1.56;72.08
78671;BME280;68277;52.724;6.516;2023-04-03T01:43:42;103246.94;;;1.32;72.83
78671;BME280;68277;52.724;6.516;2023-04-03T01:46:07;103248.63;;;1.32;73.14
78671;BME280;68277;52.724;6.516;2023-04-03T01:48:33;103277.94;;;1.43;72.71
78671;BME280;68277;52.724;6.516;2023-04-03T01:50:58;103267.97;;;1.35;72.74
78671;BME280;68277;52.724;6.516;2023-04-03T01:53:24;103253.38;;;1.23;73.36
78671;BME280;68277;52.724;6.516;2023-04-03T01:55:50;103277.25;;;1.30;73.57
78671;BME280;68277;52.724;6.516;2023-04-03T01:58:15;103295.75;;;1.35;74.14
78671;BME280;68277;52.724;6.516;2023-04-03T02:00:41;103276.03;;;1.24;73.70
78671;BME280;68277;52.724;6.516;2023-04-03T02:03:06;103241.03;;;1.04;72.62
78671;BME280;68277;52.724;6.516;2023-04-03T02:05:32;103264.53;;;1.20;73.11
78671;BME280;68277;52.724;6.516;2023-04-03T02:07:59;103292.91;;;1.30;73.40
78671;BME280;68277;52.724;6.516;2023-04-03T02:10:25;103249.84;;;1.06;74.29
78671;BME280;68277;52.724;6.516;2023-04-03T02:12:52;103290.97;;;1.26;74.48
78671;BME280;68277;52.724;6.516;2023-04-03T02:15:18;103265.75;;;1.11;73.93
78671;BME280;68277;52.724;6.516;2023-04-03T02:17:44;103256.38;;;0.98;73.52
78671;BME280;68277;52.724;6.516;2023-04-03T02:20:10;103235.50;;;0.82;74.63
78671;BME280;68277;52.724;6.516;2023-04-03T02:22:37;103308.53;;;1.14;74.47
78671;BME280;68277;52.724;6.516;2023-04-03T02:25:03;103306.75;;;1.13;74.67
78671;BME280;68277;52.724;6.516;2023-04-03T02:27:28;103287.84;;;1.01;75.79
78671;BME280;68277;52.724;6.516;2023-04-03T02:29:54;103280.50;;;0.94;74.24
78671;BME280;68277;52.724;6.516;2023-04-03T02:32:19;103302.59;;;1.01;76.71
78671;BME280;68277;52.724;6.516;2023-04-03T02:34:46;103294.31;;;0.93;75.68
78671;BME280;68277;52.724;6.516;2023-04-03T02:37:12;103281.69;;;0.85;74.92
78671;BME280;68277;52.724;6.516;2023-04-03T02:39:38;103285.03;;;0.82;74.12
78671;BME280;68277;52.724;6.516;2023-04-03T02:42:05;103303.84;;;0.93;74.75
78671;BME280;68277;52.724;6.516;2023-04-03T02:44:31;103280.41;;;0.78;74.63
78671;BME280;68277;52.724;6.516;2023-04-03T02:46:56;103311.38;;;1.03;74.99
78671;BME280;68277;52.724;6.516;2023-04-03T02:49:22;103310.16;;;0.96;74.92
78671;BME280;68277;52.724;6.516;2023-04-03T02:51:50;103319.84;;;0.99;74.67
78671;BME280;68277;52.724;6.516;2023-04-03T02:54:16;103301.34;;;0.94;75.01
78671;BME280;68277;52.724;6.516;2023-04-03T02:56:46;103313.47;;;0.94;75.03
78671;BME280;68277;52.724;6.516;2023-04-03T02:59:12;103294.28;;;0.77;74.91
78671;BME280;68277;52.724;6.516;2023-04-03T03:01:39;103325.59;;;0.93;76.76
78671;BME280;68277;52.724;6.516;2023-04-03T03:04:04;103299.06;;;0.69;75.08
78671;BME280;68277;52.724;6.516;2023-04-03T03:06:30;103302.56;;;0.70;75.38
78671;BME280;68277;52.724;6.516;2023-04-03T03:08:55;103304.81;;;0.64;74.92
78671;BME280;68277;52.724;6.516;2023-04-03T03:11:21;103327.06;;;0.74;75.30
78671;BME280;68277;52.724;6.516;2023-04-03T03:13:46;103287.03;;;0.57;75.83
78671;BME280;68277;52.724;6.516;2023-04-03T03:16:12;103319.09;;;0.71;75.19
78671;BME280;68277;52.724;6.516;2023-04-03T03:18:37;103285.00;;;0.51;75.42
78671;BME280;68277;52.724;6.516;2023-04-03T03:21:06;103262.16;;;0.47;75.72
78671;BME280;68277;52.724;6.516;2023-04-03T03:23:32;103296.59;;;0.56;77.78
78671;BME280;68277;52.724;6.516;2023-04-03T03:26:10;103329.53;;;0.71;75.86
78671;BME280;68277;52.724;6.516;2023-04-03T03:28:37;103329.53;;;0.71;75.26
78671;BME280;68277;52.724;6.516;2023-04-03T03:31:05;103328.63;;;0.70;75.95
78671;BME280;68277;52.724;6.516;2023-04-03T03:33:33;103287.22;;;0.45;75.62
78671;BME280;68277;52.724;6.516;2023-04-03T03:35:59;103306.34;;;0.60;76.12
78671;BME280;68277;52.724;6.516;2023-04-03T03:38:25;103331.22;;;0.70;76.17
78671;BME280;68277;52.724;6.516;2023-04-03T03:40:51;103252.41;;;0.29;76.81
78671;BME280;68277;52.724;6.516;2023-04-03T03:43:19;103312.28;;;0.58;76.46
78671;BME280;68277;52.724;6.516;2023-04-03T03:45:50;103303.22;;;0.51;76.55
78671;BME280;68277;52.724;6.516;2023-04-03T03:48:15;103320.75;;;0.54;76.42
78671;BME280;68277;52.724;6.516;2023-04-03T03:50:41;103302.53;;;0.39;76.98
78671;BME280;68277;52.724;6.516;2023-04-03T03:53:06;103297.66;;;0.31;77.57
78671;BME280;68277;52.724;6.516;2023-04-03T03:55:32;103299.19;;;0.27;76.70
78671;BME280;68277;52.724;6.516;2023-04-03T03:57:57;103270.75;;;0.16;76.49
78671;BME280;68277;52.724;6.516;2023-04-03T04:00:24;103306.38;;;0.31;76.70
78671;BME280;68277;52.724;6.516;2023-04-03T04:02:53;103309.44;;;0.24;78.19
78671;BME280;68277;52.724;6.516;2023-04-03T04:05:23;103332.16;;;0.27;78.09
78671;BME280;68277;52.724;6.516;2023-04-03T04:07:49;103321.91;;;0.15;77.79
78671;BME280;68277;52.724;6.516;2023-04-03T04:10:15;103299.72;;;-0.08;78.14
78671;BME280;68277;52.724;6.516;2023-04-03T04:12:42;103318.41;;;0.00;78.26
78671;BME280;68277;52.724;6.516;2023-04-03T04:15:08;103278.06;;;-0.21;77.59
78671;BME280;68277;52.724;6.516;2023-04-03T04:17:34;103322.09;;;0.04;78.08
78671;BME280;68277;52.724;6.516;2023-04-03T04:20:02;103346.53;;;0.20;78.62
78671;BME280;68277;52.724;6.516;2023-04-03T04:22:28;103280.78;;;-0.20;77.83
78671;BME280;68277;52.724;6.516;2023-04-03T04:24:54;103335.28;;;0.07;77.79
78671;BME280;68277;52.724;6.516;2023-04-03T04:27:20;103327.22;;;0.02;77.64
78671;BME280;68277;52.724;6.516;2023-04-03T04:29:45;103302.59;;;-0.18;78.17
78671;BME280;68277;52.724;6.516;2023-04-03T04:32:11;103349.03;;;0.04;78.36
78671;BME280;68277;52.724;6.516;2023-04-03T04:34:37;103306.69;;;-0.21;78.21
78671;BME280;68277;52.724;6.516;2023-04-03T04:37:02;103320.72;;;-0.19;79.70
78671;BME280;68277;52.724;6.516;2023-04-03T04:39:28;103322.31;;;-0.21;78.40
78671;BME280;68277;52.724;6.516;2023-04-03T04:41:56;103365.06;;;-0.03;78.14
78671;BME280;68277;52.724;6.516;2023-04-03T04:44:23;103385.56;;;0.06;78.32
78671;BME280;68277;52.724;6.516;2023-04-03T04:46:49;103353.09;;;-0.14;78.82
78671;BME280;68277;52.724;6.516;2023-04-03T04:49:15;103332.44;;;-0.26;78.83
78671;BME280;68277;52.724;6.516;2023-04-03T04:51:40;103316.47;;;-0.32;78.36
78671;BME280;68277;52.724;6.516;2023-04-03T04:54:06;103392.44;;;0.05;78.86
78671;BME280;68277;52.724;6.516;2023-04-03T04:56:33;103350.84;;;-0.23;79.36
78671;BME280;68277;52.724;6.516;2023-04-03T04:58:59;103380.22;;;-0.11;78.93
78671;BME280;68277;52.724;6.516;2023-04-03T05:01:26;103385.50;;;-0.09;79.72
78671;BME280;68277;52.724;6.516;2023-04-03T05:04:02;103391.69;;;-0.07;79.06
78671;BME280;68277;52.724;6.516;2023-04-03T05:06:27;103340.22;;;-0.40;78.83
78671;BME280;68277;52.724;6.516;2023-04-03T05:08:55;103345.50;;;-0.39;79.43
78671;BME280;68277;52.724;6.516;2023-04-03T05:11:22;103365.47;;;-0.25;79.05
78671;BME280;68277;52.724;6.516;2023-04-03T05:13:49;103366.09;;;-0.29;79.07
78671;BME280;68277;52.724;6.516;2023-04-03T05:16:16;103342.72;;;-0.42;79.09
78671;BME280;68277;52.724;6.516;2023-04-03T05:18:42;103335.44;;;-0.47;79.61
78671;BME280;68277;52.724;6.516;2023-04-03T05:21:12;103349.72;;;-0.41;79.39
78671;BME280;68277;52.724;6.516;2023-04-03T05:23:38;103399.94;;;-0.14;79.80
78671;BME280;68277;52.724;6.516;2023-04-03T05:26:04;103363.22;;;-0.33;79.94
78671;BME280;68277;52.724;6.516;2023-04-03T05:28:31;103330.75;;;-0.53;79.53
78671;BME280;68277;52.724;6.516;2023-04-03T05:30:58;103339.81;;;-0.46;78.78
78671;BME280;68277;52.724;6.516;2023-04-03T05:33:29;103348.75;;;-0.43;78.71
78671;BME280;68277;52.724;6.516;2023-04-03T05:36:03;103353.69;;;-0.33;79.20
78671;BME280;68277;52.724;6.516;2023-04-03T05:38:30;103412.00;;;-0.02;79.32
78671;BME280;68277;52.724;6.516;2023-04-03T05:41:02;103339.50;;;-0.38;79.15
78671;BME280;68277;52.724;6.516;2023-04-03T05:43:28;103413.19;;;0.04;78.99
78671;BME280;68277;52.724;6.516;2023-04-03T05:45:54;103413.28;;;0.05;79.18
78671;BME280;68277;52.724;6.516;2023-04-03T05:48:22;103403.41;;;-0.01;78.74
78671;BME280;68277;52.724;6.516;2023-04-03T05:50:48;103391.91;;;-0.04;79.03
78671;BME280;68277;52.724;6.516;2023-04-03T05:53:22;103424.28;;;0.14;78.65
78671;BME280;68277;52.724;6.516;2023-04-03T05:55:49;103398.22;;;-0.01;78.89
78671;BME280;68277;52.724;6.516;2023-04-03T05:58:15;103410.09;;;0.09;78.71
78671;BME280;68277;52.724;6.516;2023-04-03T06:00:42;103381.75;;;0.00;78.98
78671;BME280;68277;52.724;6.516;2023-04-03T06:03:08;103415.59;;;0.28;78.84
78671;BME280;68277;52.724;6.516;2023-04-03T06:05:33;103365.28;;;0.15;78.63
78671;BME280;68277;52.724;6.516;2023-04-03T06:08:00;103415.34;;;0.53;78.45
78671;BME280;68277;52.724;6.516;2023-04-03T06:10:25;103350.66;;;0.31;77.88
78671;BME280;68277;52.724;6.516;2023-04-03T06:12:51;103421.34;;;1.10;77.11
78671;BME280;68277;52.724;6.516;2023-04-03T06:15:17;103408.84;;;1.35;76.31
78671;BME280;68277;52.724;6.516;2023-04-03T06:17:42;103391.34;;;1.65;76.08
78671;BME280;68277;52.724;6.516;2023-04-03T06:20:11;103370.28;;;2.27;74.90
78671;BME280;68277;52.724;6.516;2023-04-03T06:22:40;103377.69;;;3.95;68.15
78671;BME280;68277;52.724;6.516;2023-04-03T06:25:07;103357.88;;;5.26;63.58
78671;BME280;68277;52.724;6.516;2023-04-03T06:27:33;103366.47;;;6.37;60.80
78671;BME280;68277;52.724;6.516;2023-04-03T06:29:58;103392.50;;;7.07;59.02
78671;BME280;68277;52.724;6.516;2023-04-03T06:32:24;103377.22;;;6.19;61.29
78671;BME280;68277;52.724;6.516;2023-04-03T06:34:50;103368.56;;;6.72;58.37
78671;BME280;68277;52.724;6.516;2023-04-03T06:37:21;103379.03;;;8.42;53.64
78671;BME280;68277;52.724;6.516;2023-04-03T06:39:47;103417.00;;;7.87;54.01
78671;BME280;68277;52.724;6.516;2023-04-03T06:42:12;103423.75;;;6.46;56.22
78671;BME280;68277;52.724;6.516;2023-04-03T06:44:46;103426.50;;;5.35;64.57
78671;BME280;68277;52.724;6.516;2023-04-03T06:47:14;103434.13;;;5.29;66.48
78671;BME280;68277;52.724;6.516;2023-04-03T06:49:39;103389.69;;;5.56;61.52
78671;BME280;68277;52.724;6.516;2023-04-03T06:52:05;103393.25;;;6.02;62.24
78671;BME280;68277;52.724;6.516;2023-04-03T06:54:31;103411.34;;;5.94;58.78
78671;BME280;68277;52.724;6.516;2023-04-03T06:56:57;103438.16;;;7.32;59.52
78671;BME280;68277;52.724;6.516;2023-04-03T06:59:27;103441.28;;;7.76;55.69
78671;BME280;68277;52.724;6.516;2023-04-03T07:01:53;103417.44;;;6.91;58.30
78671;BME280;68277;52.724;6.516;2023-04-03T07:04:19;103450.84;;;6.19;59.52
78671;BME280;68277;52.724;6.516;2023-04-03T07:06:46;103427.16;;;5.74;60.27
78671;BME280;68277;52.724;6.516;2023-04-03T07:09:13;103410.09;;;5.85;58.73
78671;BME280;68277;52.724;6.516;2023-04-03T07:11:39;103436.25;;;6.28;59.40
78671;BME280;68277;52.724;6.516;2023-04-03T07:14:05;103442.69;;;6.12;57.90
78671;BME280;68277;52.724;6.516;2023-04-03T07:16:36;103450.03;;;5.76;59.02
78671;BME280;68277;52.724;6.516;2023-04-03T07:19:02;103447.13;;;5.26;61.37
78671;BME280;68277;52.724;6.516;2023-04-03T07:21:28;103472.50;;;5.05;60.43
78671;BME280;68277;52.724;6.516;2023-04-03T07:23:53;103435.19;;;4.70;60.88
78671;BME280;68277;52.724;6.516;2023-04-03T07:26:19;103480.66;;;4.71;61.30
78671;BME280;68277;52.724;6.516;2023-04-03T07:28:48;103460.28;;;4.45;61.39
78671;BME280;68277;52.724;6.516;2023-04-03T07:31:15;103467.63;;;4.53;62.14
78671;BME280;68277;52.724;6.516;2023-04-03T07:33:42;103484.41;;;5.17;60.83
78671;BME280;68277;52.724;6.516;2023-04-03T07:36:09;103482.59;;;5.58;60.48
78671;BME280;68277;52.724;6.516;2023-04-03T07:38:37;103479.19;;;5.39;59.55
78671;BME280;68277;52.724;6.516;2023-04-03T07:41:03;103462.91;;;5.05;61.59
78671;BME280;68277;52.724;6.516;2023-04-03T07:43:29;103480.88;;;5.17;63.22
78671;BME280;68277;52.724;6.516;2023-04-03T07:45:54;103497.38;;;5.35;61.54
78671;BME280;68277;52.724;6.516;2023-04-03T07:48:24;103494.00;;;5.37;59.21
78671;BME280;68277;52.724;6.516;2023-04-03T07:50:53;103493.81;;;6.20;59.42
78671;BME280;68277;52.724;6.516;2023-04-03T07:53:18;103468.38;;;6.43;57.33
78671;BME280;68277;52.724;6.516;2023-04-03T07:55:48;103499.09;;;6.44;58.47
78671;BME280;68277;52.724;6.516;2023-04-03T07:58:16;103483.13;;;6.15;61.07
78671;BME280;68277;52.724;6.516;2023-04-03T08:00:42;103468.41;;;5.97;61.21
78671;BME280;68277;52.724;6.516;2023-04-03T08:03:11;103489.91;;;6.09;55.47
78671;BME280;68277;52.724;6.516;2023-04-03T08:05:41;103446.41;;;5.95;58.27
78671;BME280;68277;52.724;6.516;2023-04-03T08:08:09;103493.94;;;6.23;60.01
78671;BME280;68277;52.724;6.516;2023-04-03T08:10:35;103501.00;;;6.24;61.00
78671;BME280;68277;52.724;6.516;2023-04-03T08:13:01;103479.41;;;6.56;59.03
78671;BME280;68277;52.724;6.516;2023-04-03T08:15:26;103474.88;;;7.83;50.36
78671;BME280;68277;52.724;6.516;2023-04-03T08:17:54;103463.78;;;7.93;51.95
78671;BME280;68277;52.724;6.516;2023-04-03T08:20:20;103455.47;;;7.79;55.36
78671;BME280;68277;52.724;6.516;2023-04-03T08:22:45;103494.13;;;8.08;49.22
78671;BME280;68277;52.724;6.516;2023-04-03T08:25:11;103487.38;;;8.18;57.71
78671;BME280;68277;52.724;6.516;2023-04-03T08:27:37;103475.50;;;8.94;54.96
78671;BME280;68277;52.724;6.516;2023-04-03T08:30:03;103443.38;;;10.70;48.30
78671;BME280;68277;52.724;6.516;2023-04-03T08:32:29;103460.00;;;12.28;40.56
78671;BME280;68277;52.724;6.516;2023-04-03T08:35:00;103477.31;;;13.67;37.16
78671;BME280;68277;52.724;6.516;2023-04-03T08:37:26;103475.75;;;14.04;38.61
78671;BME280;68277;52.724;6.516;2023-04-03T08:39:51;103469.25;;;12.65;38.64
78671;BME280;68277;52.724;6.516;2023-04-03T08:44:59;103482.97;;;14.27;36.70
78671;BME280;68277;52.724;6.516;2023-04-03T08:47:43;103478.78;;;15.67;34.21
78671;BME280;68277;52.724;6.516;2023-04-03T08:53:20;103454.44;;;12.83;40.93
78671;BME280;68277;52.724;6.516;2023-04-03T08:55:50;103455.22;;;12.00;40.99
78671;BME280;68277;52.724;6.516;2023-04-03T08:58:25;103486.13;;;13.58;38.67
78671;BME280;68277;52.724;6.516;2023-04-03T09:00:57;103479.66;;;15.05;29.74
78671;BME280;68277;52.724;6.516;2023-04-03T09:03:23;103448.56;;;15.39;30.68
78671;BME280;68277;52.724;6.516;2023-04-03T09:08:31;103475.97;;;16.24;27.40
78671;BME280;68277;52.724;6.516;2023-04-03T09:13:48;103444.06;;;15.74;33.40
78671;BME280;68277;52.724;6.516;2023-04-03T09:19:47;103460.09;;;15.13;31.57
78671;BME280;68277;52.724;6.516;2023-04-03T09:21:42;103461.94;;;13.27;39.00
78671;BME280;68277;52.724;6.516;2023-04-03T09:24:11;103465.06;;;12.86;34.77
78671;BME280;68277;52.724;6.516;2023-04-03T09:29:21;103444.09;;;14.76;33.15
78671;BME280;68277;52.724;6.516;2023-04-03T09:31:50;103460.09;;;15.67;29.47
78671;BME280;68277;52.724;6.516;2023-04-03T09:34:22;103454.78;;;15.68;29.68
78671;BME280;68277;52.724;6.516;2023-04-03T09:36:51;103443.13;;;15.95;25.82
78671;BME280;68277;52.724;6.516;2023-04-03T09:39:23;103434.22;;;15.95;26.02
78671;BME280;68277;52.724;6.516;2023-04-03T09:41:56;103457.38;;;15.96;26.36
78671;BME280;68277;52.724;6.516;2023-04-03T09:44:28;103445.00;;;14.99;30.67
78671;BME280;68277;52.724;6.516;2023-04-03T09:46:55;103454.72;;;15.84;29.34
78671;BME280;68277;52.724;6.516;2023-04-03T09:49:20;103418.31;;;15.55;29.34
78671;BME280;68277;52.724;6.516;2023-04-03T09:51:46;103458.38;;;15.45;27.43
78671;BME280;68277;52.724;6.516;2023-04-03T09:54:35;103461.00;;;15.40;27.01
78671;BME280;68277;52.724;6.516;2023-04-03T09:57:09;103428.13;;;15.11;28.39
78671;BME280;68277;52.724;6.516;2023-04-03T09:59:38;103451.22;;;15.03;28.07
78671;BME280;68277;52.724;6.516;2023-04-03T10:04:41;103428.13;;;15.46;28.50
78671;BME280;68277;52.724;6.516;2023-04-03T10:07:32;103448.53;;;15.29;27.93
78671;BME280;68277;52.724;6.516;2023-04-03T10:10:21;103410.13;;;14.12;26.97
78671;BME280;68277;52.724;6.516;2023-04-03T10:13:07;103432.38;;;14.24;30.43
78671;BME280;68277;52.724;6.516;2023-04-03T10:15:39;103444.84;;;14.30;29.17
78671;BME280;68277;52.724;6.516;2023-04-03T10:18:22;103408.09;;;13.61;29.27
78671;BME280;68277;52.724;6.516;2023-04-03T10:20:53;103412.38;;;13.41;30.78
78671;BME280;68277;52.724;6.516;2023-04-03T10:23:41;103434.00;;;13.95;29.52
78671;BME280;68277;52.724;6.516;2023-04-03T10:26:12;103436.69;;;14.00;31.81
78671;BME280;68277;52.724;6.516;2023-04-03T10:28:51;103437.34;;;13.58;30.08
78671;BME280;68277;52.724;6.516;2023-04-03T10:31:26;103433.72;;;13.48;31.07
78671;BME280;68277;52.724;6.516;2023-04-03T10:34:06;103423.88;;;13.34;32.17
78671;BME280;68277;52.724;6.516;2023-04-03T10:36:46;103419.03;;;12.87;29.84
78671;BME280;68277;52.724;6.516;2023-04-03T10:39:31;103433.44;;;13.11;32.37
78671;BME280;68277;52.724;6.516;2023-04-03T10:42:15;103405.88;;;13.04;30.25
78671;BME280;68277;52.724;6.516;2023-04-03T10:50:29;103414.00;;;12.30;33.13
78671;BME280;68277;52.724;6.516;2023-04-03T10:53:31;103439.81;;;12.42;31.70
78671;BME280;68277;52.724;6.516;2023-04-03T10:58:48;103439.59;;;12.25;31.71
78671;BME280;68277;52.724;6.516;2023-04-03T11:01:22;103401.78;;;11.73;30.97
78671;BME280;68277;52.724;6.516;2023-04-03T11:03:56;103395.41;;;11.63;33.24
78671;BME280;68277;52.724;6.516;2023-04-03T11:06:25;103421.22;;;11.72;31.91
78671;BME280;68277;52.724;6.516;2023-04-03T11:09:03;103380.38;;;11.63;33.01
78671;BME280;68277;52.724;6.516;2023-04-03T11:11:38;103378.03;;;11.82;33.80
78671;BME280;68277;52.724;6.516;2023-04-03T11:14:26;103373.00;;;11.41;31.56
78671;BME280;68277;52.724;6.516;2023-04-03T11:17:15;103400.69;;;11.61;32.83
78671;BME280;68277;52.724;6.516;2023-04-03T11:19:50;103396.50;;;11.76;32.68
78671;BME280;68277;52.724;6.516;2023-04-03T11:22:25;103376.31;;;11.25;32.23
78671;BME280;68277;52.724;6.516;2023-04-03T11:25:02;103391.56;;;11.43;32.65
78671;BME280;68277;52.724;6.516;2023-04-03T11:27:33;103348.00;;;11.24;31.10
78671;BME280;68277;52.724;6.516;2023-04-03T11:30:06;103383.44;;;11.31;30.23
78671;BME280;68277;52.724;6.516;2023-04-03T11:35:49;103387.88;;;11.32;33.10
78671;BME280;68277;52.724;6.516;2023-04-03T11:38:31;103384.06;;;11.15;30.82
78671;BME280;68277;52.724;6.516;2023-04-03T11:41:04;103301.97;;;10.62;33.21
78671;BME280;68277;52.724;6.516;2023-04-03T11:43:33;103369.09;;;11.17;32.72
78671;BME280;68277;52.724;6.516;2023-04-03T11:46:02;103348.81;;;11.19;33.11
78671;BME280;68277;52.724;6.516;2023-04-03T11:50:55;103372.09;;;11.41;33.21
78671;BME280;68277;52.724;6.516;2023-04-03T11:53:33;103377.59;;;11.53;33.60
78671;BME280;68277;52.724;6.516;2023-04-03T11:56:26;103319.56;;;11.13;33.56
78671;BME280;68277;52.724;6.516;2023-04-03T12:04:11;103360.53;;;11.34;31.22
78671;BME280;68277;52.724;6.516;2023-04-03T12:09:24;103314.75;;;10.87;33.44
78671;BME280;68277;52.724;6.516;2023-04-03T12:11:51;103349.78;;;11.25;33.40
78671;BME280;68277;52.724;6.516;2023-04-03T12:14:17;103340.22;;;11.38;33.63
78671;BME280;68277;52.724;6.516;2023-04-03T12:16:45;103349.25;;;11.49;33.76
78671;BME280;68277;52.724;6.516;2023-04-03T12:29:26;103284.00;;;10.97;33.40
78671;BME280;68277;52.724;6.516;2023-04-03T12:32:32;103316.00;;;11.11;33.90
78671;BME280;68277;52.724;6.516;2023-04-03T12:35:21;103326.75;;;11.21;33.42
78671;BME280;68277;52.724;6.516;2023-04-03T12:51:05;103296.50;;;11.70;34.40
78671;BME280;68277;52.724;6.516;2023-04-03T12:53:35;103276.34;;;11.84;33.92
78671;BME280;68277;52.724;6.516;2023-04-03T12:56:21;103293.56;;;12.24;32.67
78671;BME280;68277;52.724;6.516;2023-04-03T12:58:49;103245.53;;;11.98;33.37
78671;BME280;68277;52.724;6.516;2023-04-03T13:01:21;103263.94;;;11.85;31.81
78671;BME280;68277;52.724;6.516;2023-04-03T13:03:55;103301.88;;;11.76;32.74
78671;BME280;68277;52.724;6.516;2023-04-03T13:08:57;103232.47;;;11.43;33.08
78671;BME280;68277;52.724;6.516;2023-04-03T13:11:25;103267.09;;;11.55;33.67
78671;BME280;68277;52.724;6.516;2023-04-03T13:13:59;103291.09;;;11.64;33.75
78671;BME280;68277;52.724;6.516;2023-04-03T13:16:26;103257.63;;;11.72;34.13
78671;BME280;68277;52.724;6.516;2023-04-03T13:18:53;103294.88;;;11.81;33.75
78671;BME280;68277;52.724;6.516;2023-04-03T13:21:28;103249.28;;;11.45;34.09
78671;BME280;68277;52.724;6.516;2023-04-03T13:23:57;103252.09;;;11.54;33.15
78671;BME280;68277;52.724;6.516;2023-04-03T13:26:29;103278.81;;;11.69;33.31
78671;BME280;68277;52.724;6.516;2023-04-03T13:28:59;103265.44;;;11.63;32.55
78671;BME280;68277;52.724;6.516;2023-04-03T13:31:29;103258.72;;;11.91;34.07
78671;BME280;68277;52.724;6.516;2023-04-03T13:34:06;103276.69;;;12.19;33.75
78671;BME280;68277;52.724;6.516;2023-04-03T13:36:37;103256.91;;;11.88;33.04
78671;BME280;68277;52.724;6.516;2023-04-03T13:39:22;103262.38;;;12.02;32.80
78671;BME280;68277;52.724;6.516;2023-04-03T13:41:51;103259.44;;;11.76;34.37
78671;BME280;68277;52.724;6.516;2023-04-03T13:46:50;103264.03;;;11.89;34.44
78671;BME280;68277;52.724;6.516;2023-04-03T13:51:43;103248.22;;;12.03;34.15
78671;BME280;68277;52.724;6.516;2023-04-03T13:54:23;103236.63;;;11.93;32.92
78671;BME280;68277;52.724;6.516;2023-04-03T13:56:55;103240.97;;;11.85;33.01
78671;BME280;68277;52.724;6.516;2023-04-03T13:59:33;103250.44;;;11.65;31.97
78671;BME280;68277;52.724;6.516;2023-04-03T14:06:54;103209.16;;;11.90;34.37
78671;BME280;68277;52.724;6.516;2023-04-03T14:09:22;103227.69;;;11.85;33.21
78671;BME280;68277;52.724;6.516;2023-04-03T14:11:50;103229.44;;;11.83;32.99
78671;BME280;68277;52.724;6.516;2023-04-03T14:14:23;103200.00;;;11.63;33.89
78671;BME280;68277;52.724;6.516;2023-04-03T14:16:58;103227.56;;;11.72;32.71
78671;BME280;68277;52.724;6.516;2023-04-03T14:19:33;103231.78;;;11.59;32.11
78671;BME280;68277;52.724;6.516;2023-04-03T14:22:05;103229.28;;;11.68;33.70
78671;BME280;68277;52.724;6.516;2023-04-03T14:24:32;103203.59;;;11.65;33.76
78671;BME280;68277;52.724;6.516;2023-04-03T14:27:14;103211.91;;;11.99;34.79
78671;BME280;68277;52.724;6.516;2023-04-03T14:29:41;103215.59;;;12.14;34.65
78671;BME280;68277;52.724;6.516;2023-04-03T14:32:06;103197.78;;;12.01;33.77